Time;durP1;ratioP1;P1;durP2;ratioP2;P2;SDS_P1;SDS_P2;PMS_P1;PMS_P2;Temp;Humidity;BMP_temperature;BMP_pressure;BME280_temperature;BME280_humidity;BME280_pressure;Samples;Min_cycle;Max_cycle;Signal;HPM_P1;HPM_P2
2022/11/17 00:01:06;;;;;;;2.00;0.85;;;11.10;99.90;;;;;;5056169;28;20056;-62
2022/11/17 00:03:32;;;;;;;2.60;0.75;;;11.10;99.90;;;;;;5039572;28;20045;-62
2022/11/17 00:06:05;;;;;;;1.77;0.80;;;11.20;99.90;;;;;;5039483;28;20048;-62
2022/11/17 00:08:31;;;;;;;;;;;11.20;99.90;;;;;;5039836;28;20055;-63
2022/11/17 00:11:01;;;;;;;1.77;0.70;;;11.20;99.90;;;;;;5055935;28;19922;-62
2022/11/17 00:16:17;;;;;;;1.08;0.50;;;11.30;99.90;;;;;;5056425;28;20040;-63
2022/11/17 00:21:28;;;;;;;1.77;0.50;;;11.30;99.90;;;;;;5056803;28;20090;-63
2022/11/17 00:23:55;;;;;;;0.60;0.40;;;11.20;99.90;;;;;;5055862;28;20511;-63
2022/11/17 00:26:22;;;;;;;1.20;0.40;;;11.30;99.90;;;;;;5022983;28;20122;-63
2022/11/17 00:29:09;;;;;;;1.00;0.40;;;11.30;99.90;;;;;;5055854;28;20025;-62
2022/11/17 00:34:22;;;;;;;1.73;0.40;;;11.40;99.90;;;;;;5055803;28;20095;-65
2022/11/17 00:36:49;;;;;;;1.45;0.52;;;11.50;99.90;;;;;;5056436;28;20066;-64
2022/11/17 00:39:17;;;;;;;0.85;0.40;;;11.40;99.90;;;;;;5056762;28;20037;-63
2022/11/17 00:41:43;;;;;;;1.23;0.30;;;11.40;99.90;;;;;;5056211;28;20036;-61
2022/11/17 00:44:09;;;;;;;1.05;0.47;;;11.40;99.90;;;;;;5056628;28;20087;-61
2022/11/17 00:46:36;;;;;;;1.23;0.47;;;11.40;99.90;;;;;;5055527;28;20037;-63
2022/11/17 00:49:03;;;;;;;1.92;0.40;;;11.40;99.90;;;;;;5055660;28;20040;-63
2022/11/17 00:51:29;;;;;;;0.98;0.40;;;11.50;99.90;;;;;;5055500;28;20033;-61
2022/11/17 00:53:55;;;;;;;1.42;0.52;;;11.50;99.90;;;;;;5056348;28;20040;-61
2022/11/17 00:56:22;;;;;;;1.10;0.50;;;11.50;99.90;;;;;;5055463;28;20029;-64
2022/11/17 00:58:47;;;;;;;1.85;0.68;;;11.40;99.90;;;;;;5056188;28;20048;-62
2022/11/17 01:01:13;;;;;;;2.20;0.35;;;11.40;99.90;;;;;;5055411;28;20266;-62
2022/11/17 01:03:39;;;;;;;2.35;0.60;;;11.30;99.90;;;;;;5055942;28;20045;-64
2022/11/17 01:06:07;;;;;;;1.15;0.60;;;11.30;99.90;;;;;;5055621;28;20086;-65
2022/11/17 01:08:33;;;;;;;2.95;0.60;;;11.30;99.90;;;;;;5056127;28;20045;-62
2022/11/17 01:11:10;;;;;;;1.63;0.70;;;11.30;99.90;;;;;;5056126;28;20101;-63
2022/11/17 01:13:37;;;;;;;3.30;0.70;;;11.30;99.90;;;;;;5055999;28;20052;-64
2022/11/17 01:16:05;;;;;;;2.38;0.47;;;11.30;99.90;;;;;;5055298;28;20025;-64
2022/11/17 01:18:32;;;;;;;1.45;0.70;;;11.30;99.90;;;;;;5055306;28;20040;-63
2022/11/17 01:21:13;;;;;;;4.20;0.60;;;11.20;99.90;;;;;;5038628;28;20320;-63
2022/11/17 01:23:41;;;;;;;4.03;0.70;;;11.20;99.90;;;;;;5038676;28;20107;-61
2022/11/17 01:26:28;;;;;;;6.63;1.02;;;11.20;99.90;;;;;;5055178;28;20033;-63
2022/11/17 01:28:54;;;;;;;3.28;0.60;;;11.10;99.90;;;;;;5054129;28;20041;-63
2022/11/17 01:31:23;;;;;;;1.70;0.70;;;11.10;99.90;;;;;;5058650;28;20032;-63
2022/11/17 01:33:50;;;;;;;3.08;0.70;;;11.10;99.90;;;;;;5059505;28;20024;-64
2022/11/17 01:36:17;;;;;;;8.82;1.25;;;11.10;99.90;;;;;;5059364;28;20073;-63
2022/11/17 01:38:43;;;;;;;3.70;0.80;;;11.00;99.90;;;;;;5059412;28;20052;-63
2022/11/17 01:41:20;;;;;;;3.05;1.00;;;11.00;99.90;;;;;;5058470;28;20082;-61
2022/11/17 01:44:10;;;;;;;6.68;0.95;;;11.00;99.90;;;;;;5058680;28;20033;-63
2022/11/17 01:46:40;;;;;;;4.00;0.98;;;11.00;99.90;;;;;;5058975;28;20036;-65
2022/11/17 01:49:13;;;;;;;4.03;1.15;;;11.00;99.90;;;;;;5059558;28;20028;-63
2022/11/17 01:51:47;;;;;;;4.82;1.00;;;11.10;99.90;;;;;;5059120;28;20032;-64
2022/11/17 01:54:16;;;;;;;7.05;1.38;;;11.10;99.90;;;;;;5059136;28;20029;-63
2022/11/17 01:56:45;;;;;;;7.18;1.10;;;11.10;99.90;;;;;;5059024;28;20029;-64
2022/11/17 01:59:26;;;;;;;11.48;1.67;;;11.10;99.90;;;;;;5059083;28;20025;-64
2022/11/17 02:01:56;;;;;;;6.00;1.50;;;11.10;99.90;;;;;;5058828;28;20028;-64
2022/11/17 02:04:32;;;;;;;4.97;1.20;;;11.10;99.90;;;;;;5058122;28;20052;-63
2022/11/17 02:07:11;;;;;;;7.28;1.60;;;11.10;99.90;;;;;;5058798;28;20032;-63
2022/11/17 02:09:39;;;;;;;5.45;1.50;;;11.20;99.90;;;;;;5041540;28;20016;-64
2022/11/17 02:12:08;;;;;;;8.73;1.40;;;11.20;99.90;;;;;;5058877;28;20017;-64
2022/11/17 02:14:35;;;;;;;8.57;1.63;;;11.20;99.90;;;;;;5058916;28;20036;-64
2022/11/17 02:17:02;;;;;;;5.32;1.40;;;11.30;99.90;;;;;;5058628;28;20033;-63
2022/11/17 02:19:34;;;;;;;6.40;1.40;;;11.30;99.90;;;;;;5058745;28;20025;-64
2022/11/17 02:22:09;;;;;;;5.25;1.23;;;11.40;99.90;;;;;;5058912;28;20107;-63
2022/11/17 02:25:18;;;;;;;7.70;1.35;;;11.50;99.90;;;;;;5058643;28;20025;-63
2022/11/17 02:28:04;;;;;;;4.70;1.00;;;11.50;99.90;;;;;;5036352;28;20036;-63
2022/11/17 02:30:43;;;;;;;7.85;1.10;;;11.60;99.90;;;;;;5058620;28;20040;-64
2022/11/17 02:33:31;;;;;;;5.30;1.45;;;11.50;99.90;;;;;;5057640;28;20033;-62
2022/11/17 02:36:15;;;;;;;6.53;1.45;;;11.50;99.90;;;;;;5058289;28;20029;-61
2022/11/17 02:39:08;;;;;;;6.53;1.35;;;11.40;99.90;;;;;;5058378;28;20029;-61
2022/11/17 02:41:57;;;;;;;8.55;1.60;;;11.30;99.90;;;;;;5058380;28;20041;-63
2022/11/17 02:44:46;;;;;;;8.02;1.35;;;11.30;99.90;;;;;;5057894;28;20044;-62
2022/11/17 02:47:38;;;;;;;6.10;1.45;;;11.40;99.90;;;;;;5058337;28;20094;-63
2022/11/17 02:50:09;;;;;;;9.27;1.52;;;11.40;99.90;;;;;;5057473;28;20037;-63
2022/11/17 02:52:35;;;;;;;10.10;1.30;;;11.40;99.90;;;;;;5058043;28;20029;-64
2022/11/17 02:55:09;;;;;;;8.15;0.90;;;11.50;99.90;;;;;;5057891;28;20033;-63
2022/11/17 02:57:37;;;;;;;7.13;1.33;;;11.50;99.90;;;;;;5058087;28;20021;-62
2022/11/17 03:00:13;;;;;;;4.85;0.98;;;11.40;99.90;;;;;;5040985;28;20349;-65
2022/11/17 03:02:58;;;;;;;5.38;1.13;;;11.40;99.90;;;;;;5057238;28;20032;-65
2022/11/17 03:05:48;;;;;;;4.97;0.73;;;11.40;99.90;;;;;;5057784;28;20044;-65
2022/11/17 03:08:37;;;;;;;6.88;1.30;;;11.50;99.90;;;;;;5057145;28;20047;-63
2022/11/17 03:11:06;;;;;;;3.97;1.00;;;11.50;99.90;;;;;;5020126;28;20037;-62
2022/11/17 03:13:56;;;;;;;6.13;1.05;;;11.50;99.90;;;;;;5056949;28;20040;-61
2022/11/17 03:16:47;;;;;;;7.35;1.27;;;11.50;99.90;;;;;;5056687;28;20126;-61
2022/11/17 03:19:25;;;;;;;5.10;0.95;;;11.50;99.90;;;;;;5056750;28;20039;-62
2022/11/17 03:22:09;;;;;;;5.15;1.13;;;11.50;99.90;;;;;;5057401;28;20033;-62
2022/11/17 03:24:48;;;;;;;5.97;1.10;;;11.50;99.90;;;;;;5057952;28;20033;-63
2022/11/17 03:27:18;;;;;;;4.60;0.98;;;11.40;99.90;;;;;;5056657;28;20041;-61
2022/11/17 03:29:50;;;;;;;3.88;0.77;;;11.40;99.90;;;;;;5056618;28;20021;-62
2022/11/17 03:32:17;;;;;;;6.80;1.23;;;11.40;99.90;;;;;;5057162;28;20097;-60
2022/11/17 03:34:48;;;;;;;5.38;1.10;;;11.40;99.90;;;;;;5055794;28;20304;-61
2022/11/17 03:37:20;;;;;;;3.15;0.98;;;11.30;99.90;;;;;;5057016;28;20103;-62
2022/11/17 03:39:50;;;;;;;5.57;1.33;;;11.30;99.90;;;;;;5057011;28;20029;-61
2022/11/17 03:42:24;;;;;;;4.90;1.10;;;11.30;99.90;;;;;;5057501;28;20420;-63
2022/11/17 03:44:55;;;;;;;6.60;1.48;;;11.30;99.90;;;;;;5056429;28;20036;-63
2022/11/17 03:47:24;;;;;;;4.03;0.90;;;11.30;99.90;;;;;;5056988;28;20156;-63
2022/11/17 03:49:56;;;;;;;5.50;1.02;;;11.20;99.90;;;;;;5056991;28;20090;-62
2022/11/17 03:52:24;;;;;;;2.28;0.77;;;11.20;99.90;;;;;;5056424;28;20087;-62
2022/11/17 03:54:51;;;;;;;3.42;1.00;;;11.20;99.90;;;;;;5056969;28;20041;-61
2022/11/17 03:57:42;;;;;;;6.70;1.27;;;11.20;99.90;;;;;;5056224;28;20055;-61
2022/11/17 04:00:11;;;;;;;6.03;1.08;;;11.20;99.90;;;;;;5057511;28;20067;-62
2022/11/17 04:02:44;;;;;;;7.03;1.77;;;11.20;99.90;;;;;;5056970;28;20108;-62
2022/11/17 04:05:12;;;;;;;3.65;1.00;;;11.30;99.90;;;;;;5055980;28;20136;-61
2022/11/17 04:07:40;;;;;;;5.43;1.63;;;11.30;99.90;;;;;;5056098;28;20041;-61
2022/11/17 04:10:09;;;;;;;7.13;1.40;;;11.30;99.90;;;;;;5056803;28;20045;-62
2022/11/17 04:18:17;;;;;;;6.53;1.20;;;11.40;99.90;;;;;;5055815;28;20389;-62
2022/11/17 04:20:43;;;;;;;7.00;1.20;;;11.40;99.90;;;;;;5056579;28;20029;-63
2022/11/17 04:23:13;;;;;;;9.95;1.30;;;11.40;99.90;;;;;;5056591;28;20037;-63
2022/11/17 04:28:44;;;;;;;6.55;1.20;;;11.40;99.90;;;;;;5056579;28;20029;-63
2022/11/17 04:31:19;;;;;;;;;;;11.40;99.90;;;;;;5056732;28;20033;-63
2022/11/17 04:33:47;;;;;;;9.68;1.23;;;11.40;99.90;;;;;;5055790;28;20011;-63
2022/11/17 04:36:18;;;;;;;7.43;1.48;;;11.40;99.90;;;;;;5056982;28;20326;-62
2022/11/17 04:38:47;;;;;;;5.85;1.05;;;11.40;99.90;;;;;;5056517;28;20043;-63
2022/11/17 04:44:00;;;;;;;5.82;1.17;;;11.40;99.90;;;;;;5056306;28;20025;-61
2022/11/17 04:46:29;;;;;;;6.70;1.38;;;11.40;99.90;;;;;;5055281;28;20029;-61
2022/11/17 04:48:57;;;;;;;7.38;1.27;;;11.40;99.90;;;;;;5056051;28;20044;-62
2022/11/17 04:51:24;;;;;;;6.68;1.23;;;11.40;99.90;;;;;;5056349;28;20036;-64
2022/11/17 04:53:50;;;;;;;9.05;1.35;;;11.40;99.90;;;;;;5055420;28;20187;-63
2022/11/17 04:56:18;;;;;;;6.43;1.00;;;11.40;99.90;;;;;;5056301;28;20055;-63
2022/11/17 04:58:43;;;;;;;3.97;0.93;;;11.40;99.90;;;;;;5055860;28;20028;-63
2022/11/17 05:01:13;;;;;;;5.68;1.02;;;11.30;99.90;;;;;;5056056;28;20033;-64
2022/11/17 05:03:42;;;;;;;8.13;1.23;;;11.30;99.90;;;;;;5057261;28;20041;-61
2022/11/17 05:06:30;;;;;;;8.55;1.00;;;11.30;99.90;;;;;;5059275;28;20055;-62
2022/11/17 05:08:58;;;;;;;4.53;0.80;;;11.30;99.90;;;;;;5059959;28;20419;-63
2022/11/17 05:14:13;;;;;;;7.57;0.93;;;11.20;99.90;;;;;;5059219;28;20024;-66
2022/11/17 05:19:26;;;;;;;4.40;0.65;;;11.00;99.90;;;;;;5060253;28;20025;-61
2022/11/17 05:21:52;;;;;;;2.78;0.70;;;11.00;99.90;;;;;;5059910;28;20367;-63
2022/11/17 05:24:18;;;;;;;3.70;1.02;;;11.00;99.90;;;;;;5059061;28;20025;-62
2022/11/17 05:26:46;;;;;;;3.97;0.57;;;10.90;99.90;;;;;;5059533;28;20033;-62
2022/11/17 05:29:14;;;;;;;3.28;0.75;;;10.90;99.90;;;;;;5059888;28;20382;-61
2022/11/17 05:31:41;;;;;;;5.38;0.65;;;10.80;99.90;;;;;;5042082;28;20134;-64
2022/11/17 05:34:08;;;;;;;2.70;0.55;;;10.70;99.90;;;;;;5059492;28;20035;-60
2022/11/17 05:36:34;;;;;;;3.08;0.40;;;10.70;99.90;;;;;;5059465;28;20086;-62
2022/11/17 05:39:01;;;;;;;3.28;0.52;;;10.70;99.90;;;;;;5058676;28;20029;-63
2022/11/17 05:41:30;;;;;;;3.25;0.50;;;10.60;99.90;;;;;;5059393;28;20289;-60
2022/11/17 05:43:57;;;;;;;4.55;0.60;;;10.60;99.90;;;;;;5058724;28;20041;-61
2022/11/17 05:46:23;;;;;;;2.95;0.55;;;10.60;99.90;;;;;;5059319;28;20124;-63
2022/11/17 05:48:50;;;;;;;1.77;0.68;;;10.50;99.90;;;;;;5059288;28;20036;-61
2022/11/17 05:51:17;;;;;;;1.05;0.40;;;10.60;99.90;;;;;;5058436;28;20048;-61
2022/11/17 05:53:43;;;;;;;2.63;0.43;;;10.50;99.90;;;;;;5041827;28;20043;-62
2022/11/17 05:56:21;;;;;;;4.88;0.45;;;10.50;99.90;;;;;;5058384;28;20082;-62
2022/11/17 05:58:51;;;;;;;1.50;0.35;;;10.50;99.90;;;;;;5059190;28;20039;-61
2022/11/17 06:01:19;;;;;;;3.95;0.40;;;10.40;99.90;;;;;;5059653;28;20043;-62
2022/11/17 06:03:50;;;;;;;1.98;0.52;;;10.40;99.90;;;;;;5058739;28;20307;-61
2022/11/17 06:06:16;;;;;;;1.67;0.38;;;10.40;99.90;;;;;;5058135;28;20288;-59
2022/11/17 06:08:42;;;;;;;1.38;0.40;;;10.40;99.90;;;;;;5041624;28;20025;-61
2022/11/17 06:11:08;;;;;;;2.50;0.65;;;10.30;99.90;;;;;;5058825;28;20036;-60
2022/11/17 06:13:34;;;;;;;2.40;0.50;;;10.30;99.90;;;;;;5041508;28;20413;-61
2022/11/17 06:16:04;;;;;;;2.15;0.40;;;10.30;99.90;;;;;;5040821;28;20056;-61
2022/11/17 06:18:44;;;;;;;2.70;0.43;;;10.40;99.90;;;;;;5058802;28;20033;-62
2022/11/17 06:21:13;;;;;;;1.60;0.70;;;10.40;99.90;;;;;;5058261;28;20048;-61
2022/11/17 06:23:38;;;;;;;2.55;0.40;;;10.30;99.90;;;;;;5058653;28;20082;-62
2022/11/17 06:26:08;;;;;;;3.05;0.57;;;10.30;99.90;;;;;;5058362;28;20400;-61
2022/11/17 06:28:37;;;;;;;3.60;0.60;;;10.30;99.90;;;;;;5057944;28;20075;-62
2022/11/17 06:31:05;;;;;;;2.78;0.63;;;10.30;99.90;;;;;;5058522;28;20119;-61
2022/11/17 06:33:32;;;;;;;3.33;0.60;;;10.30;99.90;;;;;;5057686;28;20028;-60
2022/11/17 06:36:00;;;;;;;3.60;0.70;;;10.30;99.90;;;;;;5057512;28;20048;-62
2022/11/17 06:38:26;;;;;;;1.25;0.47;;;10.30;99.90;;;;;;5057731;28;20025;-64
2022/11/17 06:40:51;;;;;;;3.97;0.68;;;10.30;99.90;;;;;;5058371;28;20043;-62
2022/11/17 06:43:17;;;;;;;4.85;0.70;;;10.30;99.90;;;;;;5040912;28;20025;-61
2022/11/17 06:45:45;;;;;;;2.17;0.50;;;10.40;99.90;;;;;;5057510;28;20048;-61
2022/11/17 06:48:14;;;;;;;3.17;0.60;;;10.40;99.90;;;;;;5057473;28;20102;-62
2022/11/17 06:50:40;;;;;;;2.80;0.50;;;10.40;99.90;;;;;;5057355;28;20428;-60
2022/11/17 06:53:08;;;;;;;2.05;0.43;;;10.40;99.90;;;;;;5058066;28;20029;-61
2022/11/17 06:55:35;;;;;;;2.00;0.50;;;10.40;99.90;;;;;;5040756;28;20297;-61
2022/11/17 06:58:05;;;;;;;4.05;0.52;;;10.40;99.90;;;;;;5057191;28;20384;-63
2022/11/17 07:00:32;;;;;;;3.47;0.55;;;10.40;99.90;;;;;;5057200;28;20044;-63
2022/11/17 07:03:03;;;;;;;5.35;0.70;;;10.40;99.90;;;;;;5057366;28;20028;-63
2022/11/17 07:05:33;;;;;;;3.55;0.55;;;10.40;99.90;;;;;;5057736;28;20055;-63
2022/11/17 07:08:02;;;;;;;4.22;0.60;;;10.40;99.90;;;;;;5057082;28;20063;-68
2022/11/17 07:10:29;;;;;;;2.65;0.80;;;10.40;99.90;;;;;;5056987;28;20021;-62
2022/11/17 07:12:54;;;;;;;3.45;0.63;;;10.40;99.90;;;;;;5057948;28;20094;-62
2022/11/17 07:15:20;;;;;;;4.45;0.73;;;10.40;99.90;;;;;;5056874;28;20037;-60
2022/11/17 07:17:46;;;;;;;3.67;0.63;;;10.40;99.90;;;;;;5057435;28;20040;-62
2022/11/17 07:20:13;;;;;;;3.33;0.65;;;10.40;99.90;;;;;;5056660;28;20328;-63
2022/11/17 07:22:40;;;;;;;2.92;0.60;;;10.40;99.90;;;;;;5057393;28;20044;-61
2022/11/17 07:25:07;;;;;;;1.42;0.35;;;10.40;99.90;;;;;;5056604;28;20112;-61
2022/11/17 07:27:33;;;;;;;3.72;0.63;;;10.40;99.90;;;;;;5056531;28;20083;-61
2022/11/17 07:29:59;;;;;;;8.30;0.70;;;10.40;99.90;;;;;;5057178;28;20033;-62
2022/11/17 07:32:25;;;;;;;2.83;0.63;;;10.40;99.90;;;;;;5057245;28;20025;-61
2022/11/17 07:34:51;;;;;;;4.85;1.08;;;10.40;99.90;;;;;;5057234;28;20112;-62
2022/11/17 07:37:17;;;;;;;4.60;0.63;;;10.40;99.90;;;;;;5023647;28;20282;-62
2022/11/17 07:39:43;;;;;;;4.63;0.60;;;10.30;99.90;;;;;;5057276;28;20024;-65
2022/11/17 07:42:09;;;;;;;3.38;0.63;;;10.40;99.90;;;;;;5056403;28;20078;-66
2022/11/17 07:44:35;;;;;;;2.45;0.60;;;10.30;99.90;;;;;;5056421;28;20032;-64
2022/11/17 07:47:01;;;;;;;3.95;0.77;;;10.30;99.90;;;;;;5057060;28;20029;-61
2022/11/17 07:49:27;;;;;;;5.38;0.80;;;10.30;99.90;;;;;;5056283;28;20052;-62
2022/11/17 07:51:53;;;;;;;3.40;0.47;;;10.30;99.90;;;;;;5039539;28;20400;-64
2022/11/17 07:54:19;;;;;;;2.03;0.70;;;10.30;99.90;;;;;;5056921;28;20025;-62
2022/11/17 07:56:45;;;;;;;2.20;0.52;;;10.30;99.90;;;;;;5057611;28;20431;-60
2022/11/17 07:59:11;;;;;;;1.95;0.70;;;10.20;99.90;;;;;;5057069;28;20053;-61
2022/11/17 08:01:37;;;;;;;2.38;0.50;;;10.20;99.90;;;;;;5039532;28;20033;-59
2022/11/17 08:04:04;;;;;;;2.90;0.50;;;10.10;99.90;;;;;;5055963;28;20412;-59
2022/11/17 08:06:29;;;;;;;2.67;0.65;;;10.10;99.90;;;;;;5040430;28;20396;-60
2022/11/17 08:08:55;;;;;;;2.42;0.60;;;10.10;99.90;;;;;;5039482;28;20037;-61
2022/11/17 08:11:21;;;;;;;4.15;0.60;;;10.20;99.90;;;;;;5057321;28;20037;-60
2022/11/17 08:13:48;;;;;;;4.03;0.60;;;10.10;99.90;;;;;;5056825;28;20025;-60
2022/11/17 08:16:14;;;;;;;3.05;0.52;;;10.10;99.90;;;;;;5056453;28;20136;-60
2022/11/17 08:18:40;;;;;;;4.15;0.70;;;10.10;99.90;;;;;;5056553;28;20098;-60
2022/11/17 08:21:13;;;;;;;3.65;1.02;;;10.00;99.90;;;;;;5056943;28;20369;-60
2022/11/17 08:23:40;;;;;;;1.27;0.50;;;10.00;99.90;;;;;;5056696;28;20120;-58
2022/11/17 08:26:09;;;;;;;2.70;0.57;;;10.10;99.90;;;;;;5056084;28;20029;-58
2022/11/17 08:28:36;;;;;;;3.72;0.70;;;10.10;99.90;;;;;;5056689;28;20032;-60
2022/11/17 08:31:03;;;;;;;3.45;0.73;;;10.10;99.90;;;;;;5056699;28;20021;-59
2022/11/17 08:33:29;;;;;;;2.83;0.77;;;10.10;99.90;;;;;;5056050;28;20037;-58
2022/11/17 08:35:59;;;;;;;2.15;0.50;;;10.10;99.90;;;;;;5056567;28;20037;-61
2022/11/17 08:38:27;;;;;;;4.53;0.63;;;10.10;99.90;;;;;;5059127;28;20025;-59
2022/11/17 08:41:11;;;;;;;5.70;0.77;;;10.10;99.90;;;;;;5060001;28;20032;-61
2022/11/17 08:43:37;;;;;;;3.05;0.60;;;10.20;99.90;;;;;;5059921;28;20312;-59
2022/11/17 08:46:03;;;;;;;4.32;0.80;;;10.20;99.90;;;;;;5060431;28;20033;-59
2022/11/17 08:48:30;;;;;;;3.72;0.70;;;10.20;99.90;;;;;;5060602;28;20407;-59
2022/11/17 08:50:56;;;;;;;7.40;0.75;;;10.20;99.90;;;;;;5060885;28;20444;-60
2022/11/17 08:53:22;;;;;;;2.47;0.77;;;10.30;99.90;;;;;;5060549;28;20438;-62
2022/11/17 08:55:49;;;;;;;4.85;0.90;;;10.30;99.90;;;;;;5059711;28;20064;-60
2022/11/17 08:58:15;;;;;;;3.95;0.70;;;10.40;99.90;;;;;;5059696;28;20033;-62
2022/11/17 09:00:41;;;;;;;2.88;0.80;;;10.40;99.90;;;;;;5060045;28;20037;-61
2022/11/17 09:03:11;;;;;;;2.88;0.82;;;10.40;99.90;;;;;;5059238;28;20349;-61
2022/11/17 09:05:39;;;;;;;6.88;0.70;;;10.50;99.90;;;;;;5059438;28;20044;-65
2022/11/17 09:08:05;;;;;;;5.45;0.75;;;10.50;99.90;;;;;;5059355;28;20490;-63
2022/11/17 09:10:31;;;;;;;6.28;0.70;;;10.50;99.90;;;;;;5042877;28;20048;-62
2022/11/17 09:12:57;;;;;;;2.33;0.40;;;10.50;99.90;;;;;;5060067;28;20420;-61
2022/11/17 09:15:23;;;;;;;2.90;0.63;;;10.60;99.90;;;;;;5060016;28;20124;-62
2022/11/17 09:17:50;;;;;;;1.90;0.52;;;10.60;99.90;;;;;;5060075;28;20408;-60
2022/11/17 09:20:17;;;;;;;2.88;0.60;;;10.60;99.90;;;;;;5059936;28;20036;-64
2022/11/17 09:22:44;;;;;;;5.03;0.80;;;10.70;99.90;;;;;;5060192;28;20101;-62
2022/11/17 09:25:10;;;;;;;3.72;0.70;;;10.70;99.90;;;;;;5059239;28;20033;-62
2022/11/17 09:27:36;;;;;;;3.42;0.50;;;10.80;99.90;;;;;;5059091;28;20040;-61
2022/11/17 09:30:02;;;;;;;4.45;0.60;;;10.80;99.90;;;;;;5060394;28;20044;-61
2022/11/17 09:32:28;;;;;;;4.72;0.73;;;10.80;99.90;;;;;;5058914;28;20025;-61
2022/11/17 09:34:54;;;;;;;1.90;0.90;;;10.80;99.90;;;;;;5058759;28;20144;-61
2022/11/17 09:37:21;;;;;;;2.53;0.50;;;10.90;99.90;;;;;;5058802;28;20396;-62
2022/11/17 09:39:47;;;;;;;1.83;0.50;;;10.90;99.90;;;;;;5058818;28;20033;-62
2022/11/17 09:42:15;;;;;;;4.10;0.60;;;10.90;99.90;;;;;;5058631;28;20029;-61
2022/11/17 09:45:07;;;;;;;3.60;0.50;;;10.90;99.90;;;;;;5058805;28;20063;-60
2022/11/17 09:47:40;;;;;;;3.42;0.55;;;10.90;99.90;;;;;;5059434;28;20033;-61
2022/11/17 09:50:19;;;;;;;2.13;0.40;;;11.00;99.90;;;;;;5057673;28;20029;-61
2022/11/17 09:52:50;;;;;;;3.08;0.82;;;11.00;99.90;;;;;;5042037;28;20016;-61
2022/11/17 09:55:28;;;;;;;2.73;0.77;;;11.00;99.90;;;;;;5059266;28;20040;-60
2022/11/17 09:58:02;;;;;;;2.47;0.50;;;11.10;99.90;;;;;;5059487;28;20031;-61
2022/11/17 10:00:32;;;;;;;1.85;0.52;;;11.10;99.90;;;;;;5059286;28;20079;-61
2022/11/17 10:02:59;;;;;;;3.85;0.75;;;11.10;99.90;;;;;;5058368;28;20033;-60
2022/11/17 10:05:32;;;;;;;1.08;0.50;;;11.10;99.90;;;;;;5058914;28;20045;-62
2022/11/17 10:08:07;;;;;;;4.57;1.05;;;11.10;99.90;;;;;;5059360;28;20033;-62
2022/11/17 10:10:43;;;;;;;2.65;0.70;;;11.00;99.90;;;;;;5058978;28;20051;-62
2022/11/17 10:13:26;;;;;;;4.60;0.80;;;11.00;99.90;;;;;;5058986;28;20029;-61
2022/11/17 10:15:54;;;;;;;;;;;11.10;99.90;;;;;;5042590;28;20083;-62
2022/11/17 10:18:20;;;;;;;3.78;0.70;;;11.10;99.90;;;;;;5058820;28;19908;-62
2022/11/17 10:20:46;;;;;;;3.15;0.70;;;11.10;99.90;;;;;;5058860;28;20036;-61
2022/11/17 10:23:17;;;;;;;2.22;0.55;;;11.10;99.90;;;;;;5058668;28;20040;-61
2022/11/17 10:25:46;;;;;;;2.75;0.60;;;11.20;99.90;;;;;;5058854;28;20374;-62
2022/11/17 10:28:31;;;;;;;5.55;0.80;;;11.20;99.90;;;;;;5057884;28;20270;-61
2022/11/17 10:31:09;;;;;;;9.75;0.82;;;11.20;99.90;;;;;;5057851;28;20037;-61
2022/11/17 10:33:37;;;;;;;3.22;0.68;;;11.20;99.90;;;;;;5058666;28;20037;-59
2022/11/17 10:36:16;;;;;;;1.80;0.68;;;11.20;99.90;;;;;;5058545;28;20033;-60
2022/11/17 10:38:47;;;;;;;4.72;0.60;;;11.20;99.90;;;;;;5058489;28;20033;-61
2022/11/17 10:41:40;;;;;;;3.95;0.60;;;11.30;99.90;;;;;;5059016;28;20101;-61
2022/11/17 10:44:26;;;;;;;;;;;11.30;99.90;;;;;;5057918;28;20130;-61
2022/11/17 10:46:59;;;;;;;5.95;0.93;;;11.30;99.90;;;;;;5058268;28;19916;-60
2022/11/17 10:49:27;;;;;;;2.30;0.52;;;11.40;99.90;;;;;;5058274;28;20075;-61
2022/11/17 10:52:17;;;;;;;3.05;0.60;;;11.30;99.90;;;;;;5057559;28;20060;-61
2022/11/17 10:54:43;;;;;;;5.00;0.60;;;11.40;99.90;;;;;;5058740;28;20029;-61
2022/11/17 10:57:23;;;;;;;3.95;0.43;;;11.40;99.90;;;;;;5058388;28;20025;-61
2022/11/17 10:59:52;;;;;;;3.28;0.60;;;11.40;99.90;;;;;;5057501;28;20064;-63
2022/11/17 11:02:28;;;;;;;1.60;0.45;;;11.40;99.90;;;;;;5057306;28;20032;-60
2022/11/17 11:05:16;;;;;;;1.80;0.85;;;11.40;99.90;;;;;;5057024;28;20424;-61
2022/11/17 11:07:43;;;;;;;1.90;0.50;;;11.50;99.90;;;;;;5058085;28;20059;-60
2022/11/17 11:10:34;;;;;;;3.95;0.80;;;11.40;99.90;;;;;;5057243;28;20028;-61
2022/11/17 11:13:18;;;;;;;3.97;0.68;;;11.40;99.90;;;;;;5058103;28;20090;-60
2022/11/17 11:15:44;;;;;;;5.18;0.90;;;11.50;99.90;;;;;;5057826;28;20418;-61
2022/11/17 11:18:15;;;;;;;2.67;0.60;;;11.40;99.90;;;;;;5040410;28;20037;-62
2022/11/17 11:21:12;;;;;;;2.33;0.52;;;11.50;99.90;;;;;;5057715;28;20017;-62
2022/11/17 11:23:48;;;;;;;1.30;0.55;;;11.50;99.90;;;;;;5057678;28;20029;-62
2022/11/17 11:26:42;;;;;;;3.08;0.60;;;11.50;99.90;;;;;;5057602;28;20029;-61
2022/11/17 11:29:41;;;;;;;3.47;0.50;;;11.60;99.90;;;;;;5057658;28;20053;-60
2022/11/17 11:32:47;;;;;;;4.25;0.70;;;11.70;99.90;;;;;;5057507;28;20277;-62
2022/11/17 11:35:45;;;;;;;3.45;0.57;;;11.70;99.90;;;;;;5057097;28;20404;-62
2022/11/17 11:38:35;;;;;;;6.65;0.85;;;11.80;99.90;;;;;;5034605;28;20044;-61
2022/11/17 11:41:22;;;;;;;4.35;0.70;;;11.80;99.90;;;;;;5057569;28;20396;-61
2022/11/17 11:44:11;;;;;;;2.08;0.55;;;11.70;99.90;;;;;;5057342;28;20029;-62
2022/11/17 11:47:20;;;;;;;3.05;0.63;;;11.70;99.90;;;;;;5039819;28;20119;-61
2022/11/17 11:50:04;;;;;;;3.45;0.70;;;11.70;99.90;;;;;;5056375;28;20029;-62
2022/11/17 11:52:39;;;;;;;1.70;0.60;;;11.70;99.90;;;;;;5039798;28;20025;-63
2022/11/17 11:55:17;;;;;;;1.80;0.50;;;11.80;99.90;;;;;;5039754;28;20401;-61
2022/11/17 11:58:19;;;;;;;2.08;0.50;;;12.00;99.90;;;;;;5057031;28;20057;-59
2022/11/17 12:00:46;;;;;;;3.97;0.57;;;12.10;99.90;;;;;;5045568;28;20397;-60
2022/11/17 12:03:40;;;;;;;1.30;0.30;;;12.10;99.90;;;;;;5056742;28;20025;-60
2022/11/17 12:09:39;;;;;;;3.03;0.65;;;12.10;99.90;;;;;;5056884;28;20305;-59
2022/11/17 12:12:14;;;;;;;1.30;0.45;;;12.20;99.90;;;;;;5056486;28;20033;-63
2022/11/17 12:15:06;;;;;;;3.80;0.55;;;12.10;99.90;;;;;;5056260;28;20032;-61
2022/11/17 12:17:32;;;;;;;2.03;0.47;;;12.00;99.90;;;;;;5056872;28;20021;-61
2022/11/17 12:20:01;;;;;;;3.25;0.40;;;12.00;99.90;;;;;;5056670;28;20032;-61
2022/11/17 12:22:31;;;;;;;1.33;0.40;;;12.10;99.90;;;;;;5056795;28;20052;-60
2022/11/17 12:25:04;;;;;;;3.03;0.40;;;12.20;99.90;;;;;;5056734;28;20400;-59
2022/11/17 12:27:33;;;;;;;2.22;0.40;;;12.40;99.90;;;;;;5056779;28;20159;-61
2022/11/17 12:30:04;;;;;;;2.08;0.43;;;12.70;99.90;;;;;;5056742;28;20385;-62
2022/11/17 12:32:51;;;;;;;1.73;0.30;;;12.80;99.90;;;;;;5056192;28;20021;-61
2022/11/17 12:35:28;;;;;;;1.35;0.30;;;12.80;99.90;;;;;;5055624;28;20037;-60
2022/11/17 12:38:16;;;;;;;3.63;0.63;;;12.90;99.90;;;;;;5055778;28;20017;-61
2022/11/17 12:40:52;;;;;;;1.95;0.40;;;13.30;99.90;;;;;;5056593;28;20025;-62
2022/11/17 12:43:20;;;;;;;0.88;0.40;;;13.40;99.90;;;;;;5039409;28;20033;-62
2022/11/17 12:45:52;;;;;;;1.50;0.38;;;13.40;99.90;;;;;;5056530;28;20029;-60
2022/11/17 12:48:23;;;;;;;1.63;0.43;;;13.30;99.90;;;;;;5055818;28;20351;-61
2022/11/17 12:51:12;;;;;;;2.33;0.40;;;13.20;99.90;;;;;;5056408;28;20032;-60
2022/11/17 12:53:47;;;;;;;2.22;0.40;;;13.30;99.90;;;;;;5056518;28;20037;-60
2022/11/17 12:56:31;;;;;;;1.38;0.32;;;13.50;99.90;;;;;;5055668;28;20044;-63
2022/11/17 12:59:06;;;;;;;3.88;0.40;;;13.20;99.90;;;;;;5056346;28;20017;-60
2022/11/17 13:01:49;;;;;;;1.42;0.38;;;13.20;99.90;;;;;;5038954;28;20371;-61
2022/11/17 13:04:20;;;;;;;;;;;13.20;99.90;;;;;;5055882;28;20097;-61
2022/11/17 13:07:06;;;;;;;1.13;0.35;;;13.30;99.90;;;;;;5038934;28;20196;-59
2022/11/17 13:09:34;;;;;;;1.52;0.40;;;13.20;99.90;;;;;;5056235;28;20034;-62
2022/11/17 13:12:09;;;;;;;1.90;0.50;;;13.00;99.90;;;;;;5056273;28;20036;-60
2022/11/17 13:14:50;;;;;;;1.65;0.50;;;12.90;99.90;;;;;;5056245;28;20044;-59
2022/11/17 13:17:15;;;;;;;2.20;0.30;;;12.90;99.90;;;;;;5056240;28;20396;-61
2022/11/17 13:19:42;;;;;;;2.60;0.40;;;12.90;99.90;;;;;;5055481;28;20170;-60
2022/11/17 13:22:12;;;;;;;4.43;0.70;;;12.90;99.90;;;;;;5055306;28;20021;-61
2022/11/17 13:24:40;;;;;;;2.72;0.40;;;12.80;99.90;;;;;;5057215;28;20033;-60
2022/11/17 13:27:26;;;;;;;2.38;0.38;;;12.70;99.90;;;;;;5059807;28;20177;-61
2022/11/17 13:30:20;;;;;;;1.15;0.52;;;12.60;99.90;;;;;;5059788;28;20423;-61
2022/11/17 13:32:46;;;;;;;1.35;0.32;;;12.60;99.90;;;;;;5059593;28;20063;-60
2022/11/17 13:35:20;;;;;;;3.33;0.50;;;12.60;99.90;;;;;;5060083;28;20373;-60
2022/11/17 13:38:03;;;;;;;1.90;0.50;;;12.60;99.90;;;;;;5059502;28;20021;-59
2022/11/17 13:40:31;;;;;;;2.15;0.57;;;12.50;99.90;;;;;;5059505;28;20091;-60
2022/11/17 13:42:58;;;;;;;2.50;0.60;;;12.40;99.90;;;;;;5059015;28;20033;-59